Time;durP1;ratioP1;P1;durP2;ratioP2;P2;SDS_P1;SDS_P2;PMS_P1;PMS_P2;Temp;Humidity;BMP_temperature;BMP_pressure;BME280_temperature;BME280_humidity;BME280_pressure;Samples;Min_cycle;Max_cycle;Signal;HPM_P1;HPM_P2
2022/11/01 00:02:20;;;;;;;25.50;14.37;;;;;;;13.24;100.00;99006.66;5052793;28;20192;-81
2022/11/01 00:04:50;;;;;;;25.20;14.83;;;;;;;13.24;100.00;99004.00;5048699;28;20204;-80
2022/11/01 00:07:18;;;;;;;18.80;13.43;;;;;;;13.17;100.00;99006.25;5052355;28;20201;-80
2022/11/01 00:09:47;;;;;;;19.53;13.70;;;;;;;13.10;100.00;99002.34;5050998;28;20224;-80
2022/11/01 00:12:17;;;;;;;22.67;14.33;;;;;;;13.10;100.00;99006.84;5045647;28;20199;-80
2022/11/01 00:14:48;;;;;;;20.70;14.20;;;;;;;13.08;100.00;99008.78;5047023;28;20204;-80
2022/11/01 00:17:17;;;;;;;22.83;13.37;;;;;;;13.01;100.00;99010.19;5045708;28;20335;-80
2022/11/01 00:19:48;;;;;;;20.37;14.73;;;;;;;13.16;100.00;99012.53;5059319;28;20194;-81
2022/11/01 00:22:16;;;;;;;20.47;14.83;;;;;;;13.22;100.00;99010.38;5115231;28;20198;-80
2022/11/01 00:24:46;;;;;;;23.60;14.87;;;;;;;13.33;100.00;99016.59;5107109;28;20347;-80
2022/11/01 00:27:17;;;;;;;25.30;15.20;;;;;;;13.43;100.00;99014.06;5114874;28;20194;-80
2022/11/01 00:29:45;;;;;;;20.80;15.27;;;;;;;13.33;100.00;99008.63;5069697;28;20256;-80
2022/11/01 00:32:14;;;;;;;20.23;15.57;;;;;;;13.35;100.00;99011.16;5066953;28;20190;-81
2022/11/01 00:34:42;;;;;;;22.13;16.00;;;;;;;13.49;100.00;99023.38;5067867;28;20197;-80
2022/11/01 00:37:13;;;;;;;20.63;15.73;;;;;;;13.49;100.00;99031.34;5065681;28;20200;-80
2022/11/01 00:39:41;;;;;;;26.23;16.00;;;;;;;13.51;100.00;99027.63;5066383;28;20196;-80
2022/11/01 00:42:10;;;;;;;22.60;15.87;;;;;;;13.58;100.00;99028.81;5069497;28;20414;-80
2022/11/01 00:44:38;;;;;;;21.27;15.53;;;;;;;13.54;100.00;99021.19;5069250;28;20200;-80
2022/11/01 00:47:10;;;;;;;24.20;15.80;;;;;;;13.56;100.00;99013.94;5069366;28;20294;-80
2022/11/01 00:49:40;;;;;;;26.23;16.43;;;;;;;13.44;100.00;99026.41;5067080;28;20189;-81
2022/11/01 00:52:08;;;;;;;26.40;16.80;;;;;;;13.52;100.00;99034.63;5067825;28;20224;-80
2022/11/01 00:54:40;;;;;;;21.33;16.10;;;;;;;13.58;100.00;99034.13;5064134;28;20713;-81
2022/11/01 00:57:09;;;;;;;20.90;15.57;;;;;;;13.55;100.00;99028.22;5069220;28;20200;-80
2022/11/01 00:59:37;;;;;;;23.77;16.77;;;;;;;13.52;100.00;99036.44;5069423;28;20228;-80
2022/11/01 01:02:08;;;;;;;24.10;15.83;;;;;;;13.62;100.00;99035.59;5049171;28;20197;-80
2022/11/01 01:04:41;;;;;;;24.87;15.77;;;;;;;13.58;100.00;99039.47;5048573;28;20243;-81
2022/11/01 01:07:10;;;;;;;23.33;15.90;;;;;;;13.42;100.00;99041.63;5021759;28;20193;-80
2022/11/01 01:09:42;;;;;;;24.17;15.93;;;;;;;13.59;100.00;99048.28;5054579;28;20208;-81
2022/11/01 01:12:11;;;;;;;20.83;16.23;;;;;;;13.50;100.00;99041.88;5055989;28;20247;-80
2022/11/01 01:14:45;;;;;;;24.87;16.23;;;;;;;13.47;100.00;99031.47;5050365;28;20197;-80
2022/11/01 01:17:15;;;;;;;24.40;16.70;;;;;;;13.52;100.00;99033.78;5051032;28;20238;-80
2022/11/01 01:19:43;;;;;;;23.57;16.43;;;;;;;13.44;100.00;99021.91;5065686;28;20701;-80
2022/11/01 01:22:12;;;;;;;26.10;16.53;;;;;;;13.47;100.00;99028.81;5109653;28;20191;-80
2022/11/01 01:24:44;;;;;;;23.97;16.20;;;;;;;13.52;100.00;99015.16;5057427;28;20194;-80
2022/11/01 01:27:13;;;;;;;22.90;16.03;;;;;;;13.52;100.00;99016.00;5104955;28;20243;-80
2022/11/01 01:29:45;;;;;;;24.37;15.63;;;;;;;13.52;100.00;99015.16;5107389;28;20256;-80
2022/11/01 01:32:14;;;;;;;24.47;16.27;;;;;;;13.60;100.00;99013.56;5108869;28;20248;-80
2022/11/01 01:34:45;;;;;;;28.70;17.70;;;;;;;13.55;100.00;99009.59;5108117;28;20198;-79
2022/11/01 01:37:15;;;;;;;25.73;16.07;;;;;;;13.65;100.00;99006.06;5109126;28;20191;-80
2022/11/01 01:39:45;;;;;;;24.70;17.07;;;;;;;13.63;100.00;99000.03;5108978;28;20187;-80
2022/11/01 01:42:20;;;;;;;21.90;16.13;;;;;;;13.65;100.00;99002.56;5107137;28;20195;-80
2022/11/01 01:45:21;;;;;;;25.03;15.37;;;;;;;13.69;100.00;98990.69;5109266;28;20194;-81
2022/11/01 01:47:53;;;;;;;24.17;16.00;;;;;;;13.58;100.00;98980.06;5109656;28;20255;-81
2022/11/01 01:50:30;;;;;;;23.50;15.83;;;;;;;13.53;100.00;98961.81;5113647;28;20186;-80
2022/11/01 01:53:05;;;;;;;24.97;15.97;;;;;;;13.38;100.00;98963.84;5058476;28;20184;-80
2022/11/01 01:55:42;;;;;;;20.77;16.27;;;;;;;13.53;100.00;98967.13;5107081;28;20199;-81
2022/11/01 01:58:13;;;;;;;25.73;16.43;;;;;;;13.50;100.00;98961.19;5106450;28;20183;-80
2022/11/01 02:00:45;;;;;;;26.23;16.10;;;;;;;13.40;100.00;98961.06;5109609;28;20187;-81
2022/11/01 02:03:15;;;;;;;24.00;16.60;;;;;;;13.45;100.00;98972.22;5119523;28;20197;-81
2022/11/01 02:05:50;;;;;;;26.13;17.57;;;;;;;13.43;100.00;98975.00;5108191;28;20191;-80
2022/11/01 02:08:26;;;;;;;25.10;17.23;;;;;;;13.36;100.00;98975.59;5109227;28;20195;-80
2022/11/01 02:11:02;;;;;;;24.00;17.10;;;;;;;13.50;100.00;98958.53;5110721;28;20214;-80
2022/11/01 02:13:32;;;;;;;26.00;17.70;;;;;;;13.50;100.00;98961.19;5106335;28;20226;-80
2022/11/01 02:16:27;;;;;;;24.60;17.93;;;;;;;13.50;100.00;98956.72;5113342;28;20191;-80
2022/11/01 02:19:14;;;;;;;25.63;17.93;;;;;;;13.45;100.00;98953.59;5110283;28;20247;-80
2022/11/01 02:22:02;;;;;;;25.90;17.60;;;;;;;13.47;100.00;98959.63;5030324;28;20194;-80
2022/11/01 02:25:09;;;;;;;28.03;18.00;;;;;;;13.44;100.00;98975.84;5026084;28;20194;-80
2022/11/01 02:28:01;;;;;;;27.13;17.53;;;;;;;13.47;100.00;98959.63;5029212;28;20213;-80
2022/11/01 02:30:40;;;;;;;26.03;18.60;;;;;;;13.36;100.00;98965.81;5030630;28;20275;-80
2022/11/01 02:33:24;;;;;;;25.40;16.90;;;;;;;13.49;100.00;98967.47;5025365;28;20348;-80
2022/11/01 02:36:00;;;;;;;27.53;18.53;;;;;;;13.61;100.00;98966.53;5030598;28;20196;-80
2022/11/01 02:38:38;;;;;;;28.33;19.10;;;;;;;13.59;100.00;98960.47;5026175;28;20476;-80
2022/11/01 02:41:13;;;;;;;27.33;18.17;;;;;;;13.50;100.00;98947.88;5109367;28;20279;-80
2022/11/01 02:43:51;;;;;;;25.50;18.17;;;;;;;13.57;100.00;98946.44;5107529;28;20240;-80
2022/11/01 02:49:22;;;;;;;28.93;18.60;;;;;;;13.56;100.00;98958.06;5065355;28;20255;-81
2022/11/01 02:51:52;;;;;;;25.67;18.53;;;;;;;13.52;100.00;98959.28;5047337;28;20216;-81
2022/11/01 02:54:23;;;;;;;25.83;19.43;;;;;;;13.58;100.00;98975.59;5045831;28;20193;-81
2022/11/01 02:56:51;;;;;;;29.20;20.13;;;;;;;13.56;100.00;98976.69;5047718;28;20238;-81
2022/11/01 02:59:25;;;;;;;28.80;19.43;;;;;;;13.66;100.00;98981.16;5047142;28;20200;-81
2022/11/01 03:02:03;;;;;;;32.07;19.97;;;;;;;13.57;100.00;98986.34;5021140;28;20255;-81
2022/11/01 03:04:37;;;;;;;29.33;19.97;;;;;;;13.56;100.00;98984.66;4991751;28;20301;-81
2022/11/01 03:07:10;;;;;;;29.13;20.17;;;;;;;13.69;100.00;98990.69;4994409;28;20194;-80
2022/11/01 03:09:40;;;;;;;26.90;20.17;;;;;;;13.65;100.00;98995.44;4990847;28;20199;-81
2022/11/01 03:12:15;;;;;;;34.07;21.13;;;;;;;13.62;100.00;98990.38;4993242;28;20246;-81
2022/11/01 03:14:53;;;;;;;33.90;21.47;;;;;;;13.65;100.00;98986.59;4994638;28;20202;-81
2022/11/01 03:17:27;;;;;;;36.73;22.90;;;;;;;13.63;100.00;98980.56;4990463;28;20206;-80
2022/11/01 03:20:07;;;;;;;32.63;23.27;;;;;;;13.54;100.00;98990.13;4987905;28;20261;-80
2022/11/01 03:22:42;;;;;;;32.57;24.03;;;;;;;13.62;100.00;98995.69;5009484;28;20193;-80
2022/11/01 03:28:01;;;;;;;35.50;23.10;;;;;;;13.55;100.00;98988.31;5032816;28;20202;-81
2022/11/01 03:30:33;;;;;;;37.40;24.03;;;;;;;13.39;100.00;98993.97;5090701;28;20248;-81
2022/11/01 03:33:01;;;;;;;33.87;24.23;;;;;;;13.48;100.00;98989.75;5070443;28;20293;-80
2022/11/01 03:35:37;;;;;;;32.97;24.27;;;;;;;13.44;100.00;98992.66;5068993;28;20193;-80
2022/11/01 03:38:13;;;;;;;31.40;23.73;;;;;;;13.38;100.00;98989.63;5067698;28;20249;-80
2022/11/01 03:40:49;;;;;;;34.03;24.20;;;;;;;13.38;100.00;98989.63;5071847;28;20196;-80
2022/11/01 03:43:19;;;;;;;37.10;25.73;;;;;;;13.41;100.00;99002.66;5052694;28;20193;-80
2022/11/01 03:45:49;;;;;;;35.63;26.07;;;;;;;13.40;100.00;99011.63;5042255;28;20193;-81
2022/11/01 03:48:18;;;;;;;35.20;25.97;;;;;;;13.32;100.00;99012.25;5020302;28;20189;-81
2022/11/01 03:50:52;;;;;;;39.43;25.30;;;;;;;13.45;100.00;99018.28;5015565;28;20243;-81
2022/11/01 03:53:20;;;;;;;37.10;25.03;;;;;;;13.48;100.00;99029.66;5048799;28;20224;-81
2022/11/01 03:55:50;;;;;;;36.47;25.67;;;;;;;13.43;100.00;99033.53;5049380;28;20200;-81
2022/11/01 03:58:21;;;;;;;37.67;25.33;;;;;;;13.51;100.00;99043.59;5050342;28;20200;-80
2022/11/01 04:00:54;;;;;;;34.50;24.83;;;;;;;13.46;100.00;99051.06;5056605;28;20227;-81
2022/11/01 04:03:22;;;;;;;37.43;25.73;;;;;;;13.33;100.00;99056.50;5057374;28;20196;-81
2022/11/01 04:05:52;;;;;;;32.93;23.70;;;;;;;13.46;100.00;99061.72;5089634;28;20195;-81
2022/11/01 04:08:21;;;;;;;37.90;25.07;;;;;;;13.52;100.00;99061.25;5087058;28;20249;-81
2022/11/01 04:10:50;;;;;;;39.80;24.60;;;;;;;13.44;100.00;99059.16;5087373;28;20227;-80
2022/11/01 04:13:19;;;;;;;34.87;23.67;;;;;;;13.49;100.00;99057.97;5099326;28;20235;-81
2022/11/01 04:21:23;;;;;;;32.67;23.17;;;;;;;13.50;100.00;99063.16;5114742;28;20194;-80
2022/11/01 04:23:54;;;;;;;35.00;24.30;;;;;;;13.57;100.00;99058.22;5107654;28;20202;-80
2022/11/01 04:26:24;;;;;;;34.10;24.43;;;;;;;13.50;100.00;99065.81;5106675;28;20184;-80
2022/11/01 04:28:58;;;;;;;34.60;22.43;;;;;;;13.50;100.00;99073.78;5079679;28;20244;-80
2022/11/01 04:31:29;;;;;;;32.27;22.47;;;;;;;13.59;100.00;99069.56;5111665;28;20225;-81
2022/11/01 04:33:59;;;;;;;33.33;24.07;;;;;;;13.39;100.00;99071.13;5107781;28;20215;-80
2022/11/01 04:36:30;;;;;;;34.43;23.47;;;;;;;13.51;100.00;99074.63;5110068;28;20209;-81
2022/11/01 04:38:59;;;;;;;33.33;23.80;;;;;;;13.53;100.00;99080.72;5108744;28;20191;-81
2022/11/01 04:41:29;;;;;;;36.60;23.57;;;;;;;13.51;100.00;99085.28;5070603;28;20203;-81
2022/11/01 04:43:59;;;;;;;35.47;24.30;;;;;;;13.57;100.00;99077.69;5110421;28;20195;-80
2022/11/01 04:46:30;;;;;;;34.10;24.27;;;;;;;13.42;100.00;99087.72;5024719;28;20194;-81
2022/11/01 04:48:59;;;;;;;40.10;24.67;;;;;;;13.56;100.00;99093.78;5029232;28;20198;-80
2022/11/01 04:51:27;;;;;;;43.13;24.80;;;;;;;13.57;100.00;99082.16;4996950;28;20205;-80
2022/11/01 04:53:58;;;;;;;32.47;23.87;;;;;;;13.49;100.00;99085.41;5021212;28;20341;-80
2022/11/01 04:56:26;;;;;;;36.73;25.27;;;;;;;13.55;100.00;99084.94;5026680;28;20202;-80
2022/11/01 04:58:54;;;;;;;35.40;23.43;;;;;;;13.57;100.00;99096.31;5024903;28;20205;-80
2022/11/01 05:01:25;;;;;;;34.00;24.37;;;;;;;13.55;100.00;99106.25;5028322;28;20206;-81
2022/11/01 05:03:56;;;;;;;37.80;24.37;;;;;;;13.53;100.00;99102.00;5039664;28;20198;-81
2022/11/01 05:06:24;;;;;;;33.87;23.97;;;;;;;13.43;100.00;99105.38;5110930;28;20650;-80
2022/11/01 05:08:55;;;;;;;34.00;25.30;;;;;;;13.47;100.00;99108.63;5110601;28;20187;-81
2022/11/01 05:11:25;;;;;;;34.27;24.20;;;;;;;13.56;100.00;99101.75;5108658;28;20210;-81
2022/11/01 05:13:54;;;;;;;32.50;24.83;;;;;;;13.51;100.00;99111.91;5110736;28;20252;-80
2022/11/01 05:16:22;;;;;;;35.87;25.00;;;;;;;13.51;100.00;99118.09;5107231;28;20199;-81
2022/11/01 05:18:51;;;;;;;35.10;24.50;;;;;;;13.42;100.00;99114.31;5103736;28;20213;-81
2022/11/01 05:21:19;;;;;;;31.97;24.50;;;;;;;13.51;100.00;99112.78;5110073;28;20186;-81
2022/11/01 05:23:48;;;;;;;32.50;24.03;;;;;;;13.58;100.00;99121.13;5053026;28;20202;-81
2022/11/01 05:26:17;;;;;;;30.37;23.23;;;;;;;13.53;100.00;99117.97;5031322;28;20201;-82
2022/11/01 05:28:47;;;;;;;36.27;24.63;;;;;;;13.53;100.00;99108.19;5022729;28;20254;-82
2022/11/01 05:31:15;;;;;;;36.60;23.27;;;;;;;13.61;100.00;99108.44;5026934;28;20198;-82
2022/11/01 05:33:45;;;;;;;31.50;23.93;;;;;;;13.57;100.00;99114.09;5028408;28;20226;-82
2022/11/01 05:36:13;;;;;;;32.73;23.63;;;;;;;13.67;100.00;99107.94;5027041;28;20232;-81
2022/11/01 05:38:42;;;;;;;33.73;23.63;;;;;;;13.58;100.00;99103.34;5027051;28;20243;-81
2022/11/01 05:41:11;;;;;;;31.20;24.47;;;;;;;13.72;100.00;99118.25;5028235;28;20205;-81
2022/11/01 05:43:40;;;;;;;36.00;24.37;;;;;;;13.66;100.00;99126.69;5042527;28;20202;-82
2022/11/01 05:46:10;;;;;;;38.10;24.00;;;;;;;13.66;100.00;99121.38;5109365;28;20235;-81
2022/11/01 05:48:38;;;;;;;34.83;24.67;;;;;;;13.69;100.00;99134.44;5110627;28;20206;-81
2022/11/01 05:51:07;;;;;;;34.60;23.30;;;;;;;13.59;100.00;99133.44;5113428;28;20385;-81
2022/11/01 05:53:38;;;;;;;34.87;22.80;;;;;;;13.65;100.00;99117.88;5102218;28;20250;-81
2022/11/01 05:56:07;;;;;;;30.53;22.83;;;;;;;13.55;100.00;99132.00;5106074;28;20187;-81
2022/11/01 05:58:35;;;;;;;31.97;22.83;;;;;;;13.60;100.00;99128.00;5108791;28;20194;-81
2022/11/01 06:01:06;;;;;;;31.73;23.37;;;;;;;13.64;100.00;99128.63;5106892;28;20199;-81
2022/11/01 06:03:38;;;;;;;29.07;22.60;;;;;;;13.68;100.00;99130.94;5100434;28;20203;-80
2022/11/01 06:06:06;;;;;;;31.67;23.33;;;;;;;13.69;100.00;99131.78;5110204;28;20202;-81
2022/11/01 06:08:36;;;;;;;34.50;23.67;;;;;;;13.72;100.00;99131.56;5108300;28;20245;-80
2022/11/01 06:11:06;;;;;;;32.53;22.93;;;;;;;13.67;100.00;99147.03;5107842;28;20240;-81
2022/11/01 06:13:35;;;;;;;36.20;24.13;;;;;;;13.71;100.00;99140.50;5108862;28;20307;-80
2022/11/01 06:16:08;;;;;;;33.17;23.90;;;;;;;13.64;100.00;99144.59;5105409;28;20183;-81
2022/11/01 06:18:38;;;;;;;32.43;23.67;;;;;;;13.74;100.00;99151.75;5048135;28;20193;-81
2022/11/01 06:21:06;;;;;;;34.97;24.43;;;;;;;13.66;100.00;99146.19;5047114;28;20200;-81
2022/11/01 06:23:36;;;;;;;36.47;25.70;;;;;;;13.67;100.00;99155.00;5044151;28;20730;-81
2022/11/01 06:26:06;;;;;;;33.83;24.53;;;;;;;13.67;100.00;99155.00;4986894;28;20191;-81
2022/11/01 06:28:34;;;;;;;34.40;24.47;;;;;;;13.74;100.00;99156.25;4989624;28;20229;-80
2022/11/01 06:31:04;;;;;;;31.40;24.27;;;;;;;13.76;100.00;99154.31;4916077;29;20256;-81
2022/11/01 06:33:37;;;;;;;34.30;24.50;;;;;;;13.71;100.00;99149.34;4914856;29;20736;-81
2022/11/01 06:36:06;;;;;;;34.77;24.20;;;;;;;13.75;100.00;99148.13;4913090;29;20238;-80
2022/11/01 06:38:35;;;;;;;31.60;23.47;;;;;;;13.81;100.00;99167.28;4906890;29;20254;-80
2022/11/01 06:41:04;;;;;;;31.93;22.13;;;;;;;13.90;100.00;99169.22;4860344;29;20248;-81
2022/11/01 06:43:33;;;;;;;28.13;21.50;;;;;;;13.80;100.00;99170.88;4902524;29;20243;-81
2022/11/01 06:46:02;;;;;;;31.63;23.03;;;;;;;13.80;100.00;99171.75;4933202;29;20197;-81
2022/11/01 06:48:32;;;;;;;33.37;22.47;;;;;;;13.77;100.00;99176.44;4947705;28;20187;-81
2022/11/01 06:51:06;;;;;;;33.00;22.57;;;;;;;13.96;100.00;99180.22;5013550;28;20200;-80
2022/11/01 06:53:35;;;;;;;33.60;22.13;;;;;;;13.95;100.00;99197.19;5046325;28;20226;-81
2022/11/01 06:56:04;;;;;;;30.20;22.20;;;;;;;13.99;100.00;99203.09;5046403;28;20225;-81
2022/11/01 06:58:35;;;;;;;31.67;22.37;;;;;;;13.97;100.00;99202.38;5027843;28;20730;-79
2022/11/01 07:01:04;;;;;;;31.23;22.63;;;;;;;13.89;100.00;99194.13;5089508;28;20252;-80
2022/11/01 07:03:34;;;;;;;31.40;22.50;;;;;;;14.03;100.00;99205.44;5091291;28;20196;-80
2022/11/01 07:06:08;;;;;;;29.87;21.40;;;;;;;14.00;100.00;99213.66;5084783;28;20204;-80
2022/11/01 07:08:36;;;;;;;31.07;21.77;;;;;;;14.04;100.00;99217.78;5088569;28;20199;-80
2022/11/01 07:11:05;;;;;;;31.03;22.30;;;;;;;14.07;100.00;99222.00;5032218;28;20244;-80
2022/11/01 07:13:36;;;;;;;31.37;22.60;;;;;;;14.09;100.00;99221.88;5030133;28;20225;-80
2022/11/01 07:16:06;;;;;;;36.97;24.57;;;;;;;14.04;100.00;99215.13;5016122;28;20209;-81
2022/11/01 07:18:35;;;;;;;31.27;23.60;;;;;;;14.09;100.00;99222.75;5031100;28;20194;-80
2022/11/01 07:21:05;;;;;;;36.30;23.97;;;;;;;14.07;100.00;99226.50;5023661;28;20205;-81
2022/11/01 07:23:35;;;;;;;35.70;25.43;;;;;;;14.08;100.00;99231.69;5027304;28;20210;-80
2022/11/01 07:26:04;;;;;;;33.37;24.60;;;;;;;13.97;100.00;99245.00;5028733;28;20208;-80
2022/11/01 07:28:33;;;;;;;30.30;23.40;;;;;;;14.08;100.00;99249.50;5045057;28;20189;-81
2022/11/01 07:31:03;;;;;;;33.67;25.13;;;;;;;14.04;100.00;99255.06;5111690;28;20202;-80
2022/11/01 07:33:33;;;;;;;34.07;24.50;;;;;;;14.09;100.00;99261.84;5112999;28;20203;-80
2022/11/01 07:36:11;;;;;;;29.43;22.90;;;;;;;14.13;100.00;99263.31;5102128;28;20207;-80
2022/11/01 07:38:42;;;;;;;29.67;23.43;;;;;;;14.20;100.00;99261.88;5112289;28;20193;-81
2022/11/01 07:41:10;;;;;;;29.37;22.30;;;;;;;14.30;100.00;99265.53;5104232;28;20240;-80
2022/11/01 07:43:39;;;;;;;32.33;23.63;;;;;;;14.23;100.00;99278.47;5107338;28;20650;-81
2022/11/01 07:46:09;;;;;;;30.87;23.30;;;;;;;14.31;100.00;99280.56;5112164;28;20240;-81
2022/11/01 07:48:39;;;;;;;30.63;21.87;;;;;;;14.40;100.00;99289.66;5030809;28;20198;-81
2022/11/01 07:51:09;;;;;;;33.60;22.00;;;;;;;14.48;100.00;99287.28;5030815;28;20192;-81
2022/11/01 07:53:38;;;;;;;35.03;22.60;;;;;;;14.47;100.00;99302.38;5026450;28;20279;-81
2022/11/01 07:56:20;;;;;;;31.93;22.23;;;;;;;14.54;100.00;99294.78;5026171;28;20259;-82
2022/11/01 07:58:51;;;;;;;31.77;21.87;;;;;;;14.66;100.00;99288.47;5027839;28;20206;-81
2022/11/01 08:01:28;;;;;;;30.43;20.90;;;;;;;14.61;100.00;99296.00;4950197;29;20201;-80
2022/11/01 08:03:57;;;;;;;31.23;22.33;;;;;;;14.49;100.00;99295.16;4915076;29;20413;-81
2022/11/01 08:06:29;;;;;;;29.57;20.70;;;;;;;14.63;100.00;99296.72;4911882;29;20201;-81
2022/11/01 08:08:58;;;;;;;32.20;20.20;;;;;;;14.83;100.00;99296.00;4913478;29;20281;-81
2022/11/01 08:11:28;;;;;;;28.57;20.13;;;;;;;14.89;100.00;99303.53;4916347;29;20205;-80
2022/11/01 08:13:58;;;;;;;32.83;21.30;;;;;;;15.11;100.00;99299.97;4941388;29;20905;-81
2022/11/01 08:16:33;;;;;;;26.43;19.60;;;;;;;15.12;100.00;99295.47;4949871;29;20196;-82
2022/11/01 08:19:03;;;;;;;30.73;20.13;;;;;;;15.32;100.00;99302.72;4903602;29;20204;-81
2022/11/01 08:21:32;;;;;;;29.40;21.67;;;;;;;15.35;100.00;99301.66;4950007;29;20335;-81
2022/11/01 08:24:01;;;;;;;28.10;20.10;;;;;;;15.35;100.00;99301.66;4947733;29;20469;-81
2022/11/01 08:26:33;;;;;;;27.33;19.73;;;;;;;15.39;100.00;99295.06;5005875;28;20205;-81
2022/11/01 08:29:06;;;;;;;26.37;19.17;;;;;;;15.38;100.00;99294.22;5071202;28;20200;-81
2022/11/01 08:31:35;;;;;;;26.47;17.87;;;;;;;15.46;100.00;99291.78;5091190;28;20199;-81
2022/11/01 08:34:13;;;;;;;26.67;18.93;;;;;;;15.40;100.00;99283.41;5032678;28;20243;-81
2022/11/01 08:36:58;;;;;;;25.63;18.33;;;;;;;15.59;100.00;99294.28;4991340;28;20205;-81
2022/11/01 08:39:26;;;;;;;25.23;18.20;;;;;;;15.48;100.00;99285.47;5026463;28;20263;-80
2022/11/01 08:42:00;;;;;;;22.07;15.90;;;;;;;15.60;100.00;99288.00;5031109;28;20225;-81
2022/11/01 08:44:29;;;;;;;21.53;15.80;;;;;;;15.90;100.00;99291.75;5029973;28;20244;-81
2022/11/01 08:46:59;;;;;;;20.47;15.40;;;;;;;15.83;100.00;99285.25;5029218;28;20200;-81
2022/11/01 08:49:28;;;;;;;24.97;16.03;;;;;;;15.82;100.00;99283.53;5030210;28;20255;-81
2022/11/01 08:51:57;;;;;;;22.40;15.87;;;;;;;15.88;100.00;99283.03;5050504;28;20192;-81
2022/11/01 08:54:25;;;;;;;25.87;18.07;;;;;;;15.91;100.00;99280.94;5081163;28;20296;-81
2022/11/01 08:56:58;;;;;;;28.50;19.17;;;;;;;15.92;100.00;99296.03;5091563;28;20192;-81
2022/11/01 08:59:30;;;;;;;28.37;19.97;;;;;;;15.78;100.00;99284.78;5090177;28;20203;-81
2022/11/01 09:01:58;;;;;;;30.53;20.17;;;;;;;15.77;100.00;99289.28;5071658;28;20200;-81
2022/11/01 09:04:27;;;;;;;27.50;20.10;;;;;;;15.76;100.00;99289.41;5031977;28;20204;-81
2022/11/01 09:06:58;;;;;;;30.20;20.20;;;;;;;15.77;100.00;99286.59;5029484;28;20197;-81
2022/11/01 09:09:28;;;;;;;26.03;18.67;;;;;;;15.76;100.00;99284.06;5027078;28;20197;-81
2022/11/01 09:11:58;;;;;;;28.80;19.30;;;;;;;15.88;100.00;99288.38;5026482;28;20244;-81
2022/11/01 09:14:29;;;;;;;28.27;18.50;;;;;;;15.48;100.00;99291.66;5027404;28;20272;-81
2022/11/01 09:16:58;;;;;;;31.00;16.40;;;;;;;15.48;100.00;99290.81;5025293;28;20198;-81
2022/11/01 09:19:29;;;;;;;24.23;15.80;;;;;;;15.33;100.00;99287.56;5036842;28;20200;-81
2022/11/01 09:22:00;;;;;;;23.63;16.00;;;;;;;15.51;100.00;99295.88;5055461;28;20192;-81
2022/11/01 09:24:29;;;;;;;19.53;14.80;;;;;;;15.64;100.00;99299.28;5060959;28;20204;-81
2022/11/01 09:27:00;;;;;;;21.77;14.27;;;;;;;15.74;100.00;99302.91;5070036;28;20296;-81
2022/11/01 09:29:28;;;;;;;21.23;14.13;;;;;;;15.77;100.00;99299.97;5060085;28;20203;-80
2022/11/01 09:31:58;;;;;;;22.77;14.63;;;;;;;15.72;100.00;99289.63;5025698;28;20201;-81
2022/11/01 09:34:29;;;;;;;21.40;14.33;;;;;;;15.70;100.00;99302.28;5027698;28;20248;-81
2022/11/01 09:36:58;;;;;;;17.83;12.77;;;;;;;15.70;100.00;99298.75;5022741;28;20197;-81
2022/11/01 09:39:27;;;;;;;19.43;12.90;;;;;;;15.64;100.00;99296.63;4996722;28;20196;-81
2022/11/01 09:42:01;;;;;;;18.77;13.23;;;;;;;15.80;100.00;99296.19;5068039;28;20199;-81
2022/11/01 09:44:36;;;;;;;15.30;12.77;;;;;;;15.99;100.00;99291.84;5066677;28;20203;-81
2022/11/01 09:47:08;;;;;;;18.83;12.73;;;;;;;15.93;100.00;99299.53;5028637;28;20200;-80
2022/11/01 09:49:41;;;;;;;18.40;12.67;;;;;;;16.14;100.00;99294.19;5037163;28;20201;-81
2022/11/01 09:52:19;;;;;;;18.27;11.97;;;;;;;16.32;100.00;99295.31;5045486;28;20201;-80
2022/11/01 09:54:48;;;;;;;16.03;10.57;;;;;;;16.34;100.00;99288.00;5047681;28;20201;-81
2022/11/01 09:57:25;;;;;;;15.70;11.23;;;;;;;16.19;100.00;99286.63;5049502;28;20197;-80
2022/11/01 10:00:04;;;;;;;18.03;10.57;;;;;;;15.98;100.00;99286.63;5044408;28;20288;-81
2022/11/01 10:02:56;;;;;;;12.90;9.60;;;;;;;16.08;100.00;99289.38;5027677;28;20197;-81
2022/11/01 10:06:00;;;;;;;15.87;9.70;;;;;;;15.99;100.00;99299.84;5037144;28;20383;-81
2022/11/01 10:08:51;;;;;;;12.63;9.70;;;;;;;16.22;100.00;99295.25;5069778;28;20249;-80
2022/11/01 10:11:44;;;;;;;13.93;9.00;;;;;;;16.52;100.00;99285.56;5071065;28;20200;-80
2022/11/01 10:14:32;;;;;;;14.13;9.10;;;;;;;16.54;100.00;99292.47;5072227;28;20228;-80
2022/11/01 10:17:12;;;;;;;15.03;9.07;;;;;;;16.16;100.00;99301.09;5073317;28;20223;-81
2022/11/01 10:19:47;;;;;;;12.80;8.43;;;;;;;16.26;100.00;99294.00;5070292;28;20259;-80
2022/11/01 10:22:18;;;;;;;13.37;9.07;;;;;;;16.12;100.00;99290.81;5067094;28;20207;-80
2022/11/01 10:24:51;;;;;;;10.07;7.00;;;;;;;15.88;100.00;99283.88;5066787;28;20189;-80
2022/11/01 10:27:28;;;;;;;10.13;5.27;;;;;;;15.89;100.00;99280.22;5090875;28;20381;-80
2022/11/01 10:30:12;;;;;;;8.87;5.47;;;;;;;15.81;100.00;99277.34;5113143;28;20198;-80
2022/11/01 10:32:47;;;;;;;4.77;3.60;;;;;;;15.77;100.00;99262.56;5107259;28;20338;-80
2022/11/01 10:35:21;;;;;;;6.20;3.50;;;;;;;15.74;100.00;99254.81;5111379;28;20202;-80
2022/11/01 10:37:55;;;;;;;7.00;3.80;;;;;;;15.87;100.00;99254.63;5117535;28;20203;-80
2022/11/01 10:40:51;;;;;;;4.80;3.17;;;;;;;15.84;100.00;99253.06;5117148;28;20277;-81
2022/11/01 10:43:23;;;;;;;7.47;3.30;;;;;;;15.97;100.00;99248.38;5113690;28;20199;-81
2022/11/01 10:45:58;;;;;;;5.23;2.60;;;;;;;15.87;100.00;99235.94;5109759;28;20225;-80
2022/11/01 10:48:33;;;;;;;5.30;2.53;;;;;;;15.95;100.00;99214.75;5116191;28;20190;-80
2022/11/01 10:51:05;;;;;;;4.90;1.90;;;;;;;16.10;100.00;99226.78;5079676;28;20198;-80
2022/11/01 10:53:41;;;;;;;5.67;1.83;;;;;;;16.26;100.00;99229.84;5112802;28;20229;-81
2022/11/01 10:56:15;;;;;;;4.60;1.87;;;;;;;16.15;100.00;99219.25;5011315;28;20748;-80
2022/11/01 10:58:59;;;;;;;6.70;1.73;;;;;;;16.40;100.00;99223.28;4979550;28;20194;-80
2022/11/01 11:01:32;;;;;;;3.17;1.53;;;;;;;17.01;100.00;99211.72;4971219;28;20250;-80
2022/11/01 11:04:03;;;;;;;2.97;1.80;;;;;;;17.21;100.00;99213.44;4967340;28;20207;-80
2022/11/01 11:06:35;;;;;;;3.03;1.30;;;;;;;17.43;100.00;99210.50;4975096;28;20203;-80
2022/11/01 11:09:06;;;;;;;3.03;1.30;;;;;;;17.53;100.00;99210.50;4969521;28;20192;-80
2022/11/01 11:11:39;;;;;;;4.20;1.33;;;;;;;17.80;100.00;99211.66;4976932;28;20242;-80
2022/11/01 11:14:09;;;;;;;3.03;1.10;;;;;;;17.60;100.00;99202.75;5018591;28;20224;-81
2022/11/01 11:16:45;;;;;;;6.73;1.33;;;;;;;17.45;100.00;99221.91;5072643;28;20322;-81
2022/11/01 11:19:18;;;;;;;4.23;1.40;;;;;;;17.72;100.00;99212.38;5082474;28;20191;-80
2022/11/01 11:21:49;;;;;;;2.70;1.20;;;;;;;18.05;100.00;99207.50;5110744;28;20199;-80
2022/11/01 11:24:21;;;;;;;3.30;1.60;;;;;;;17.77;100.00;99217.31;5109569;28;20228;-80
2022/11/01 11:26:52;;;;;;;3.33;1.30;;;;;;;17.60;100.00;99221.50;5113274;28;20217;-80
2022/11/01 11:29:38;;;;;;;3.17;1.20;;;;;;;17.62;100.00;99222.22;5070030;28;20295;-80
2022/11/01 11:32:15;;;;;;;3.10;1.20;;;;;;;17.57;100.00;99208.41;5067827;28;20200;-80
2022/11/01 11:34:53;;;;;;;1.77;0.97;;;;;;;17.58;100.00;99232.38;5069001;28;20192;-80
2022/11/01 11:37:26;;;;;;;2.13;1.00;;;;;;;17.91;100.00;99227.59;4992800;28;20222;-80
2022/11/01 11:40:18;;;;;;;2.53;1.10;;;;;;;18.31;100.00;99232.72;4984133;28;20207;-82
2022/11/01 11:42:48;;;;;;;2.10;1.10;;;;;;;18.12;100.00;99230.09;4994013;28;20257;-80
2022/11/01 11:45:23;;;;;;;1.23;1.10;;;;;;;18.20;100.00;99227.53;4991047;28;20214;-82
2022/11/01 11:47:54;;;;;;;2.70;1.20;;;;;;;18.36;100.00;99224.25;4954736;28;20242;-82